Time;durP1;ratioP1;P1;durP2;ratioP2;P2;SDS_P1;SDS_P2;PMS_P1;PMS_P2;Temp;Humidity;BMP_temperature;BMP_pressure;BME280_temperature;BME280_humidity;BME280_pressure;Samples;Min_cycle;Max_cycle;Signal;HPM_P1;HPM_P2
2022/07/01 00:01:04;;;;;;;10.60;9.30;;;;;;;18.47;83.87;99691.52;104161;1284;139253;-64
2022/07/01 00:03:31;;;;;;;11.30;8.50;;;;;;;18.44;83.93;99690.95;104330;1284;25407;-64
2022/07/01 00:05:58;;;;;;;13.80;9.70;;;;;;;18.42;84.19;99693.20;104285;1284;22649;-64
2022/07/01 00:08:24;;;;;;;16.30;11.30;;;;;;;18.39;84.25;99690.52;104240;1283;138773;-64
2022/07/01 00:10:51;;;;;;;12.10;10.30;;;;;;;18.38;84.26;99690.55;104174;1283;22594;-64
2022/07/01 00:13:18;;;;;;;15.00;11.50;;;;;;;18.37;84.54;99685.83;104249;1284;139328;-64
2022/07/01 00:15:45;;;;;;;12.20;10.80;;;;;;;18.36;84.76;99688.77;104298;1283;25370;-64
2022/07/01 00:18:12;;;;;;;12.30;10.90;;;;;;;18.36;84.78;99685.52;104347;1283;23033;-64
2022/07/01 00:20:39;;;;;;;12.00;10.20;;;;;;;18.36;84.84;99689.38;104180;1283;138523;-63
2022/07/01 00:23:06;;;;;;;12.50;11.00;;;;;;;18.35;84.80;99689.89;104182;1283;22918;-64
2022/07/01 00:25:33;;;;;;;11.10;9.90;;;;;;;18.34;84.87;99688.58;104195;1283;139446;-63
2022/07/01 00:27:59;;;;;;;13.80;10.60;;;;;;;18.34;84.98;99689.09;105137;1273;24288;-64
2022/07/01 00:30:26;;;;;;;11.10;8.70;;;;;;;18.32;84.89;99689.64;105147;1274;22760;-63
2022/07/01 00:32:53;;;;;;;11.80;10.00;;;;;;;18.31;84.98;99684.52;104949;1273;139011;-64
2022/07/01 00:35:20;;;;;;;13.40;9.10;;;;;;;18.30;84.99;99683.44;109372;1273;22502;-64
2022/07/01 00:37:47;;;;;;;12.50;8.50;;;;;;;18.28;84.73;99682.64;109462;1273;137809;-64
2022/07/01 00:40:14;;;;;;;9.80;8.60;;;;;;;18.26;84.70;99680.98;109434;1273;23192;-63
2022/07/01 00:42:41;;;;;;;14.00;8.80;;;;;;;18.24;84.79;99678.58;108529;1273;138250;-64
2022/07/01 00:45:09;;;;;;;10.70;7.80;;;;;;;18.23;84.83;99679.48;104951;1274;24017;-64
2022/07/01 00:47:37;;;;;;;14.70;8.80;;;;;;;18.22;84.78;99679.98;105100;1274;23551;-64
2022/07/01 00:50:08;;;;;;;11.30;7.60;;;;;;;18.21;84.80;99682.70;104764;1274;138557;-63
2022/07/01 00:52:35;;;;;;;10.20;8.30;;;;;;;18.20;84.84;99687.30;109378;1273;22460;-64
2022/07/01 00:55:02;;;;;;;9.70;8.70;;;;;;;18.19;84.87;99687.83;109228;1273;138042;-64
2022/07/01 00:57:30;;;;;;;15.50;11.00;;;;;;;18.18;84.80;99690.70;109467;1273;22444;-64
2022/07/01 00:59:56;;;;;;;23.20;14.00;;;;;;;18.18;84.82;99692.50;109309;1274;22451;-64
2022/07/01 01:02:23;;;;;;;25.00;13.10;;;;;;;18.18;84.84;99695.64;109320;1273;138112;-64
2022/07/01 01:04:50;;;;;;;25.30;14.30;;;;;;;18.16;84.64;99692.92;109477;1272;23205;-64
2022/07/01 01:07:17;;;;;;;24.00;14.60;;;;;;;18.14;84.74;99695.38;109331;1274;138916;-64
2022/07/01 01:09:44;;;;;;;29.50;15.80;;;;;;;18.14;84.75;99695.88;109415;1274;22490;-64
2022/07/01 01:12:11;;;;;;;24.80;15.40;;;;;;;18.14;84.75;99695.92;109442;1273;22527;-64
2022/07/01 01:14:45;;;;;;;24.70;15.80;;;;;;;18.14;84.74;99692.77;109210;1274;138757;-64
2022/07/01 01:17:13;;;;;;;21.20;13.70;;;;;;;18.14;84.59;99684.02;109432;1273;22467;-64
2022/07/01 01:19:41;;;;;;;19.50;13.20;;;;;;;18.13;84.66;99681.27;109315;1273;140185;-64
2022/07/01 01:22:08;;;;;;;22.10;12.70;;;;;;;18.13;84.67;99682.77;109476;1273;24150;-64
2022/07/01 01:24:38;;;;;;;17.40;12.50;;;;;;;18.12;84.65;99681.67;109431;1273;22444;-64
2022/07/01 01:27:05;;;;;;;21.30;13.70;;;;;;;18.12;84.66;99683.49;109493;1274;22446;-64
2022/07/01 01:29:32;;;;;;;20.50;12.20;;;;;;;18.11;84.47;99681.36;109397;1273;22563;-64
2022/07/01 01:32:03;;;;;;;18.30;12.30;;;;;;;18.09;84.35;99684.64;109406;1273;139445;-64
2022/07/01 01:34:29;;;;;;;17.10;12.20;;;;;;;18.07;84.51;99687.27;109459;1273;22461;-64
2022/07/01 01:36:56;;;;;;;20.30;13.10;;;;;;;18.07;84.71;99690.35;109327;1274;138652;-64
2022/07/01 01:39:23;;;;;;;16.40;11.80;;;;;;;18.07;84.91;99690.90;109435;1273;22476;-64
2022/07/01 01:41:50;;;;;;;18.80;12.40;;;;;;;18.09;85.11;99692.76;109464;1274;22274;-63
2022/07/01 01:44:16;;;;;;;19.40;10.40;;;;;;;18.12;85.13;99699.93;109278;1273;138249;-63
2022/07/01 01:46:43;;;;;;;15.10;10.80;;;;;;;18.13;85.10;99700.64;109509;1273;23371;-63
2022/07/01 01:49:10;;;;;;;15.10;11.10;;;;;;;18.14;84.79;99704.77;109327;1273;140306;-63
2022/07/01 01:51:37;;;;;;;13.30;10.50;;;;;;;18.12;84.49;99700.16;109439;1274;22469;-63
2022/07/01 01:54:04;;;;;;;13.10;10.40;;;;;;;18.10;84.48;99699.59;109503;1273;22414;-64
2022/07/01 01:56:31;;;;;;;13.00;10.90;;;;;;;18.09;84.47;99699.60;109387;1273;138422;-64
2022/07/01 01:58:58;;;;;;;11.00;9.80;;;;;;;18.08;84.61;99704.19;109409;1273;22472;-63
2022/07/01 02:01:25;;;;;;;13.30;9.90;;;;;;;18.07;84.68;99706.80;109295;1272;139795;-64
2022/07/01 02:03:52;;;;;;;13.90;11.10;;;;;;;18.06;84.84;99710.05;109478;1274;22457;-64
2022/07/01 02:06:19;;;;;;;12.50;10.70;;;;;;;18.06;84.86;99713.65;109431;1273;22428;-64
2022/07/01 02:08:46;;;;;;;14.70;10.00;;;;;;;18.06;85.00;99713.59;109310;1273;139565;-64
2022/07/01 02:11:13;;;;;;;17.10;9.50;;;;;;;18.06;85.18;99709.84;109448;1273;22473;-64
2022/07/01 02:13:40;;;;;;;14.50;9.60;;;;;;;18.07;85.07;99711.60;109343;1274;138691;-64
2022/07/01 02:16:07;;;;;;;14.10;10.80;;;;;;;18.06;85.10;99708.63;109487;1274;22426;-64
2022/07/01 02:18:33;;;;;;;13.20;9.70;;;;;;;18.06;85.30;99708.34;109487;1273;23166;-64
2022/07/01 02:21:00;;;;;;;12.80;9.90;;;;;;;18.09;85.44;99710.46;109380;1273;139906;-64
2022/07/01 02:23:33;;;;;;;12.20;10.50;;;;;;;18.11;85.61;99704.63;109337;1273;22469;-64
2022/07/01 02:25:59;;;;;;;19.20;10.90;;;;;;;18.14;85.83;99701.66;109295;1273;138999;-64
2022/07/01 02:28:26;;;;;;;11.90;9.50;;;;;;;18.16;86.02;99701.58;109376;1273;22653;-64
2022/07/01 02:30:53;;;;;;;14.40;10.40;;;;;;;18.18;86.03;99696.28;109320;1274;140077;-63
2022/07/01 02:33:21;;;;;;;17.00;10.30;;;;;;;18.20;86.21;99698.88;109439;1273;22453;-64
2022/07/01 02:35:48;;;;;;;12.20;10.10;;;;;;;18.23;86.32;99697.35;109441;1273;22436;-63
2022/07/01 02:38:15;;;;;;;12.40;10.40;;;;;;;18.26;86.55;99694.09;109361;1273;138767;-63
2022/07/01 02:40:42;;;;;;;16.10;10.80;;;;;;;18.31;86.79;99693.67;109467;1273;22521;-63
2022/07/01 02:43:09;;;;;;;11.90;10.20;;;;;;;18.37;87.12;99697.25;109396;1273;139071;-63
2022/07/01 02:45:36;;;;;;;16.70;10.80;;;;;;;18.42;87.40;99700.96;109523;1274;22436;-63
2022/07/01 02:48:03;;;;;;;14.10;10.70;;;;;;;18.49;87.52;99702.97;109458;1273;22533;-63
2022/07/01 02:50:30;;;;;;;14.30;10.80;;;;;;;18.54;87.58;99707.63;109380;1273;138610;-63
2022/07/01 02:52:56;;;;;;;16.20;11.60;;;;;;;18.58;87.58;99707.42;109462;1273;22466;-63
2022/07/01 02:55:23;;;;;;;18.00;11.60;;;;;;;18.61;87.35;99708.30;109327;1273;139498;-63
2022/07/01 02:57:51;;;;;;;17.40;13.60;;;;;;;18.63;87.35;99711.98;109492;1273;22598;-64
2022/07/01 03:00:19;;;;;;;27.70;16.50;;;;;;;18.66;87.21;99714.48;109448;1273;22520;-64
2022/07/01 03:02:45;;;;;;;22.70;15.60;;;;;;;18.67;87.30;99714.34;109358;1271;139436;-64
2022/07/01 03:05:12;;;;;;;24.50;16.10;;;;;;;18.73;87.38;99714.73;109494;1273;22491;-64
2022/07/01 03:07:39;;;;;;;24.10;14.80;;;;;;;18.81;87.29;99712.26;109332;1273;138540;-64
2022/07/01 03:10:07;;;;;;;24.80;15.60;;;;;;;18.88;87.22;99713.77;109465;1273;22614;-65
2022/07/01 03:12:38;;;;;;;25.80;17.60;;;;;;;18.95;87.20;99717.96;109366;1273;22556;-64
2022/07/01 03:15:08;;;;;;;27.20;18.90;;;;;;;19.01;87.18;99723.05;109468;1274;22590;-64
2022/07/01 03:17:36;;;;;;;31.20;19.20;;;;;;;19.07;86.87;99726.38;109410;1273;22486;-64
2022/07/01 03:20:06;;;;;;;25.20;18.60;;;;;;;19.14;86.53;99723.92;109389;1273;138311;-64
2022/07/01 03:22:33;;;;;;;32.70;19.50;;;;;;;19.20;86.53;99719.79;109502;1273;22452;-64
2022/07/01 03:25:00;;;;;;;26.50;17.90;;;;;;;19.29;86.72;99717.52;109379;1273;138787;-64
2022/07/01 03:27:27;;;;;;;22.00;18.10;;;;;;;19.37;86.81;99715.65;109349;1274;22445;-64
2022/07/01 03:29:54;;;;;;;25.90;18.50;;;;;;;19.45;86.90;99715.86;109418;1273;22461;-64
2022/07/01 03:32:21;;;;;;;31.00;19.10;;;;;;;19.53;87.10;99714.59;109299;1273;138552;-64
2022/07/01 03:34:48;;;;;;;21.10;16.70;;;;;;;19.63;87.36;99710.98;109396;1274;22439;-64
2022/07/01 03:37:15;;;;;;;20.60;15.90;;;;;;;19.71;87.26;99712.11;109213;1274;139607;-64
2022/07/01 03:39:42;;;;;;;21.80;16.20;;;;;;;19.80;87.16;99712.00;109486;1274;23088;-64
2022/07/01 03:42:09;;;;;;;21.00;16.10;;;;;;;19.89;87.18;99710.67;109391;1274;22552;-64
2022/07/01 03:44:36;;;;;;;20.40;15.40;;;;;;;19.98;86.95;99713.66;109173;1274;138737;-64
2022/07/01 03:47:05;;;;;;;18.30;14.70;;;;;;;20.08;86.74;99714.34;109447;1273;23226;-64
2022/07/01 03:49:33;;;;;;;20.80;15.10;;;;;;;20.19;86.53;99719.88;109336;1273;139245;-64
2022/07/01 03:52:01;;;;;;;20.70;14.60;;;;;;;20.29;86.13;99724.59;109461;1273;22501;-64
2022/07/01 03:54:31;;;;;;;14.60;12.10;;;;;;;20.40;85.62;99726.75;109356;1273;22519;-64
2022/07/01 03:57:16;;;;;;;16.50;12.40;;;;;;;20.51;84.71;99730.10;109342;1273;138192;-64
2022/07/01 03:59:43;;;;;;;18.20;12.00;;;;;;;20.64;83.87;99733.02;109451;1273;22464;-64
2022/07/01 04:02:09;;;;;;;13.90;11.50;;;;;;;20.74;83.14;99732.61;109398;1273;138684;-64
2022/07/01 04:04:36;;;;;;;11.80;10.40;;;;;;;20.82;82.60;99734.59;109449;1273;22453;-64
2022/07/01 04:07:04;;;;;;;12.90;9.70;;;;;;;20.88;82.51;99738.43;109315;1273;139663;-64
2022/07/01 04:09:31;;;;;;;10.80;8.60;;;;;;;20.93;81.80;99744.20;109498;1273;22446;-64
2022/07/01 04:11:58;;;;;;;11.30;8.20;;;;;;;20.97;80.60;99745.75;108941;1273;25285;-64
2022/07/01 04:14:24;;;;;;;13.20;8.50;;;;;;;21.01;79.53;99744.76;105017;1273;139904;-63
2022/07/01 04:16:51;;;;;;;9.40;8.30;;;;;;;21.04;78.76;99746.27;105177;1274;24320;-64
2022/07/01 04:19:19;;;;;;;10.80;8.60;;;;;;;21.09;78.33;99745.84;104949;1274;139385;-64
2022/07/01 04:24:32;;;;;;;8.90;8.00;;;;;;;21.19;77.90;99745.80;105080;1273;22725;-64
2022/07/01 04:27:00;;;;;;;10.00;8.10;;;;;;;21.24;78.05;99741.30;104991;1272;139518;-64
2022/07/01 04:29:29;;;;;;;9.00;8.10;;;;;;;21.31;77.71;99737.52;109418;1273;23454;-64
2022/07/01 04:31:57;;;;;;;9.80;8.00;;;;;;;21.38;76.69;99744.27;109365;1273;140007;-65
2022/07/01 04:34:24;;;;;;;12.80;9.00;;;;;;;21.44;75.94;99748.30;109450;1273;23274;-65
2022/07/01 04:36:51;;;;;;;13.40;8.90;;;;;;;21.48;75.68;99744.61;109296;1274;139698;-65
2022/07/01 04:39:18;;;;;;;10.10;8.90;;;;;;;21.53;75.11;99749.95;109451;1273;22451;-65
2022/07/01 04:42:00;;;;;;;11.40;9.30;;;;;;;21.55;74.95;99748.17;109479;1273;22481;-65
2022/07/01 04:44:35;;;;;;;9.70;8.20;;;;;;;21.60;74.85;99747.76;109244;1274;139318;-65
2022/07/01 04:47:08;;;;;;;11.10;8.90;;;;;;;21.66;74.96;99742.40;109440;1274;22504;-65
2022/07/01 04:49:35;;;;;;;9.80;8.50;;;;;;;21.72;74.76;99743.58;109309;1274;140430;-64
2022/07/01 04:52:02;;;;;;;14.00;8.20;;;;;;;21.80;74.54;99744.39;109420;1273;22508;-65
2022/07/01 04:54:29;;;;;;;9.80;8.00;;;;;;;21.88;74.64;99742.02;109487;1273;22424;-66
2022/07/01 04:56:56;;;;;;;12.90;8.70;;;;;;;21.97;74.24;99745.10;109325;1274;139810;-65
2022/07/01 04:59:22;;;;;;;9.20;7.50;;;;;;;22.07;73.11;99741.85;109509;1272;23333;-65
2022/07/01 05:01:49;;;;;;;9.40;6.80;;;;;;;22.20;72.40;99743.20;109328;1273;140118;-66
2022/07/01 05:04:17;;;;;;;9.50;6.80;;;;;;;22.32;71.22;99745.94;109436;1273;23170;-66
2022/07/01 05:06:44;;;;;;;9.10;7.00;;;;;;;22.44;70.58;99745.91;109374;1273;139061;-66
2022/07/01 05:09:11;;;;;;;12.40;7.30;;;;;;;22.54;69.86;99744.94;109464;1272;22459;-65
2022/07/01 05:11:38;;;;;;;8.40;7.50;;;;;;;22.64;69.60;99746.43;109458;1273;22485;-65
2022/07/01 05:14:06;;;;;;;10.20;7.20;;;;;;;22.76;69.46;99750.23;109397;1272;138383;-64
2022/07/01 05:16:33;;;;;;;13.50;6.60;;;;;;;22.89;68.92;99746.56;109426;1273;22455;-64
2022/07/01 05:21:55;;;;;;;8.10;6.00;;;;;;;23.20;67.89;99746.02;109481;1273;23647;-64
2022/07/01 05:24:23;;;;;;;7.00;5.80;;;;;;;23.48;67.15;99749.58;109453;1273;22545;-64
2022/07/01 05:26:50;;;;;;;8.30;5.80;;;;;;;23.83;65.92;99747.44;106253;1273;138152;-64
2022/07/01 05:29:17;;;;;;;8.10;6.10;;;;;;;24.23;64.98;99744.63;105128;1274;23020;-64
2022/07/01 05:31:44;;;;;;;10.80;6.00;;;;;;;24.67;63.68;99742.76;105090;1273;138515;-64
2022/07/01 05:34:11;;;;;;;8.00;6.30;;;;;;;25.14;62.24;99744.17;105175;1273;22619;-64
2022/07/01 05:36:38;;;;;;;10.50;6.70;;;;;;;25.56;60.87;99747.85;105006;1273;22730;-65
2022/07/01 05:39:05;;;;;;;6.70;5.80;;;;;;;25.85;59.52;99745.33;105040;1273;24391;-65
2022/07/01 05:41:32;;;;;;;8.50;7.00;;;;;;;26.02;58.82;99743.59;105067;1273;22578;-65
2022/07/01 05:43:59;;;;;;;12.10;6.10;;;;;;;26.18;58.57;99743.63;104954;1273;137636;-65
2022/07/01 05:46:26;;;;;;;7.20;6.40;;;;;;;26.40;57.93;99738.61;105058;1273;23004;-64
2022/07/01 05:48:53;;;;;;;12.50;6.30;;;;;;;26.66;57.19;99737.84;104997;1273;139178;-64
2022/07/01 05:51:19;;;;;;;8.10;5.90;;;;;;;26.92;56.89;99733.08;105053;1273;22584;-64
2022/07/01 05:53:47;;;;;;;7.00;5.50;;;;;;;27.14;56.18;99731.31;105088;1274;24232;-64
2022/07/01 05:56:15;;;;;;;7.30;5.70;;;;;;;27.29;55.20;99733.27;105159;1273;138373;-64
2022/07/01 05:58:41;;;;;;;6.40;5.40;;;;;;;27.32;54.97;99731.10;105003;1273;25564;-63
2022/07/01 06:01:08;;;;;;;8.60;5.50;;;;;;;27.34;54.92;99734.42;104962;1273;137731;-66
2022/07/01 06:03:36;;;;;;;10.20;5.70;;;;;;;27.35;54.76;99731.48;105041;1273;25477;-65
2022/07/01 06:06:03;;;;;;;7.30;5.90;;;;;;;27.31;54.56;99730.19;109343;1273;24088;-63
2022/07/01 06:08:30;;;;;;;8.80;5.50;;;;;;;27.25;54.93;99728.94;109295;1272;139646;-65
2022/07/01 06:10:56;;;;;;;6.70;6.00;;;;;;;27.20;54.84;99727.61;109422;1273;22501;-64
2022/07/01 06:13:23;;;;;;;5.80;4.90;;;;;;;27.11;54.95;99730.20;109282;1273;139503;-64
2022/07/01 06:15:50;;;;;;;7.40;5.00;;;;;;;26.99;54.30;99729.45;109472;1273;22441;-65
2022/07/01 06:18:17;;;;;;;5.60;4.90;;;;;;;26.78;54.29;99735.52;109429;1273;22544;-65
2022/07/01 06:20:44;;;;;;;10.20;5.10;;;;;;;26.56;54.28;99734.30;109342;1273;138051;-64
2022/07/01 06:23:11;;;;;;;5.70;4.60;;;;;;;26.32;55.17;99733.02;109473;1273;22493;-65
2022/07/01 06:25:38;;;;;;;8.60;4.80;;;;;;;26.20;56.01;99735.45;109359;1273;138601;-65
2022/07/01 06:28:04;;;;;;;7.60;5.60;;;;;;;26.16;56.18;99728.71;109434;1272;22458;-65
2022/07/01 06:30:31;;;;;;;8.20;5.80;;;;;;;26.12;55.98;99727.09;109435;1273;22414;-64
2022/07/01 06:32:58;;;;;;;6.20;5.20;;;;;;;26.07;55.92;99731.44;109399;1273;137806;-64
2022/07/01 06:35:25;;;;;;;6.80;5.40;;;;;;;25.99;56.14;99724.91;109401;1273;22523;-64
2022/07/01 06:37:52;;;;;;;11.30;6.00;;;;;;;25.94;56.15;99723.66;109411;1273;138446;-65
2022/07/01 06:40:24;;;;;;;9.80;5.80;;;;;;;25.93;56.77;99721.23;109462;1273;22909;-64
2022/07/01 06:42:52;;;;;;;8.40;5.90;;;;;;;25.94;57.17;99715.52;109393;1272;139190;-64
2022/07/01 06:45:19;;;;;;;8.70;6.00;;;;;;;25.95;56.38;99720.17;109330;1273;23633;-64
2022/07/01 06:47:46;;;;;;;6.90;5.60;;;;;;;25.90;56.05;99715.80;109489;1273;22429;-64
2022/07/01 06:50:13;;;;;;;8.00;5.50;;;;;;;25.85;56.47;99716.43;109295;1273;138261;-64
2022/07/01 06:52:40;;;;;;;8.90;4.70;;;;;;;25.84;55.29;99719.42;109507;1274;23580;-65
2022/07/01 06:55:08;;;;;;;7.90;5.20;;;;;;;25.83;54.38;99719.64;109220;1273;138022;-64
2022/07/01 06:57:37;;;;;;;5.90;4.90;;;;;;;25.83;54.43;99718.45;109418;1273;22540;-64
2022/07/01 07:00:04;;;;;;;6.90;4.80;;;;;;;25.85;54.37;99715.83;109478;1274;22462;-65
2022/07/01 07:02:31;;;;;;;6.40;4.40;;;;;;;25.87;53.80;99715.94;109307;1273;137753;-64
2022/07/01 07:04:58;;;;;;;9.90;5.80;;;;;;;25.84;52.76;99721.19;109511;1273;22447;-65
2022/07/01 07:07:28;;;;;;;8.40;5.80;;;;;;;25.82;53.50;99717.17;109298;1274;137458;-64
2022/07/01 07:09:55;;;;;;;11.40;7.10;;;;;;;25.84;54.19;99716.95;109479;1273;22519;-65
2022/07/01 07:12:24;;;;;;;7.30;6.60;;;;;;;25.82;54.99;99713.19;109539;1274;22471;-64
2022/07/01 07:14:51;;;;;;;7.50;6.40;;;;;;;25.82;55.33;99709.19;109321;1273;137439;-65
2022/07/01 07:17:17;;;;;;;8.50;6.30;;;;;;;25.86;55.17;99708.66;109437;1273;22405;-64
2022/07/01 07:19:44;;;;;;;15.40;8.60;;;;;;;25.92;55.23;99714.41;109359;1273;139026;-65
2022/07/01 07:22:11;;;;;;;13.60;7.70;;;;;;;25.96;54.81;99717.02;109412;1273;22448;-64
2022/07/01 07:24:38;;;;;;;12.90;8.60;;;;;;;25.95;54.90;99711.16;109311;1273;138644;-63
2022/07/01 07:27:06;;;;;;;23.90;8.30;;;;;;;25.96;54.69;99709.13;109413;1273;22550;-64
2022/07/01 07:29:32;;;;;;;12.00;7.40;;;;;;;25.98;55.71;99705.73;109394;1273;22468;-65
2022/07/01 07:31:59;;;;;;;8.10;6.80;;;;;;;26.03;55.75;99706.38;109326;1273;137647;-65
2022/07/01 07:34:26;;;;;;;7.70;6.90;;;;;;;26.08;55.55;99707.52;109421;1274;22493;-65
2022/07/01 07:36:53;;;;;;;9.10;6.90;;;;;;;26.10;54.61;99703.54;109322;1273;139086;-64
2022/07/01 07:39:20;;;;;;;9.30;6.20;;;;;;;26.11;54.03;99702.73;109496;1273;22280;-65
2022/07/01 07:41:47;;;;;;;8.60;6.60;;;;;;;26.11;54.21;99702.59;109481;1273;22457;-65
2022/07/01 07:44:13;;;;;;;9.40;6.50;;;;;;;26.15;54.25;99701.72;109399;1272;137821;-65
2022/07/01 07:46:40;;;;;;;6.90;5.90;;;;;;;26.19;53.98;99706.88;109323;1273;22465;-65
2022/07/01 07:49:07;;;;;;;8.30;5.80;;;;;;;26.22;53.28;99695.95;109308;1274;138220;-65
2022/07/01 07:51:34;;;;;;;8.70;5.60;;;;;;;26.24;53.01;99695.92;109410;1273;23122;-65
2022/07/01 07:54:02;;;;;;;7.40;6.20;;;;;;;26.32;52.83;99702.38;109438;1272;22380;-65
2022/07/01 07:56:30;;;;;;;6.60;5.10;;;;;;;26.38;52.19;99693.62;109379;1273;137290;-66
2022/07/01 07:58:57;;;;;;;9.20;6.10;;;;;;;26.43;52.71;99684.05;109455;1273;22600;-66
2022/07/01 08:01:23;;;;;;;5.90;5.30;;;;;;;26.47;52.46;99691.50;109353;1274;137998;-65
2022/07/01 08:03:50;;;;;;;5.50;5.00;;;;;;;26.49;51.99;99687.41;109289;1273;22452;-65
2022/07/01 08:06:17;;;;;;;6.40;5.80;;;;;;;26.51;52.43;99677.09;107134;1273;25127;-64
2022/07/01 08:08:45;;;;;;;8.90;5.90;;;;;;;26.51;52.62;99680.53;104750;1274;137859;-65
2022/07/01 08:11:12;;;;;;;5.10;4.50;;;;;;;26.50;52.85;99687.78;104859;1273;25434;-64
2022/07/01 08:13:39;;;;;;;9.60;5.70;;;;;;;26.51;52.14;99688.52;104786;1273;137636;-64
2022/07/01 08:16:05;;;;;;;8.10;5.60;;;;;;;26.52;51.58;99689.19;104826;1273;22575;-64
2022/07/01 08:18:32;;;;;;;6.00;5.50;;;;;;;26.51;51.71;99691.23;104988;1273;22646;-65
2022/07/01 08:20:59;;;;;;;5.90;5.40;;;;;;;26.47;51.83;99689.45;104771;1273;137369;-64
2022/07/01 08:23:26;;;;;;;9.00;5.10;;;;;;;26.43;52.20;99692.05;104900;1273;26814;-65
2022/07/01 08:25:53;;;;;;;6.70;5.90;;;;;;;26.36;52.63;99692.20;104826;1273;137499;-65
2022/07/01 08:28:20;;;;;;;35.50;10.10;;;;;;;26.27;53.03;99692.09;104995;1274;22994;-64
2022/07/01 08:30:46;;;;;;;7.90;6.40;;;;;;;26.19;53.30;99691.95;104835;1274;138433;-65
2022/07/01 08:33:13;;;;;;;7.80;5.90;;;;;;;26.17;53.49;99691.00;104921;1274;22579;-64
2022/07/01 08:35:40;;;;;;;7.30;5.90;;;;;;;26.20;53.08;99688.30;104969;1274;24258;-64
2022/07/01 08:38:07;;;;;;;9.90;6.60;;;;;;;26.24;53.35;99687.63;104648;1273;139809;-64
2022/07/01 08:40:34;;;;;;;9.20;6.90;;;;;;;26.31;54.59;99692.30;104934;1273;24011;-65
2022/07/01 08:43:03;;;;;;;8.40;6.50;;;;;;;26.37;55.36;99687.27;104623;1276;139169;-65
2022/07/01 08:45:31;;;;;;;7.30;5.60;;;;;;;26.45;54.67;99688.74;109117;1273;22712;-66
2022/07/01 08:48:02;;;;;;;7.30;5.80;;;;;;;26.49;53.91;99693.25;109202;1273;22435;-66
2022/07/01 08:50:47;;;;;;;7.10;5.30;;;;;;;26.48;53.38;99691.30;109147;1273;137490;-66
2022/07/01 08:53:13;;;;;;;11.00;5.40;;;;;;;26.46;52.90;99688.52;109187;1273;23640;-66
2022/07/01 08:58:28;;;;;;;5.70;5.20;;;;;;;26.45;52.93;99687.48;109194;1273;22472;-66
2022/07/01 09:01:15;;;;;;;5.90;5.30;;;;;;;26.49;52.52;99680.15;109070;1273;138508;-65
2022/07/01 09:03:44;;;;;;;5.90;5.40;;;;;;;26.52;52.28;99682.64;109314;1273;22538;-66
2022/07/01 09:06:15;;;;;;;5.80;4.50;;;;;;;26.60;51.29;99683.21;107375;1273;25207;-65
2022/07/01 09:08:42;;;;;;;6.80;5.50;;;;;;;26.65;50.90;99680.31;104890;1274;138789;-65
2022/07/01 09:11:20;;;;;;;8.90;4.90;;;;;;;26.68;50.81;99680.71;105050;1274;22551;-65
2022/07/01 09:14:06;;;;;;;5.60;5.10;;;;;;;26.72;49.86;99674.02;104800;1276;138890;-65
2022/07/01 09:16:40;;;;;;;10.40;5.00;;;;;;;26.78;49.63;99677.27;109152;1274;22562;-64
2022/07/01 09:19:07;;;;;;;5.80;5.30;;;;;;;26.78;50.00;99671.62;109122;1273;139368;-64
2022/07/01 09:21:34;;;;;;;27.90;7.30;;;;;;;26.80;50.13;99674.36;109220;1273;23364;-64
2022/07/01 09:24:25;;;;;;;6.20;4.80;;;;;;;26.82;49.40;99673.14;109053;1274;23590;-64
2022/07/01 09:27:11;;;;;;;8.40;4.60;;;;;;;26.81;48.47;99677.69;109125;1274;137347;-64
2022/07/01 09:29:40;;;;;;;5.60;4.30;;;;;;;26.80;49.02;99677.97;109239;1273;22439;-64
2022/07/01 09:32:07;;;;;;;6.10;5.00;;;;;;;26.78;49.20;99671.69;108999;1273;137698;-64
2022/07/01 09:34:41;;;;;;;4.80;4.40;;;;;;;26.81;49.32;99678.23;109208;1273;23181;-64
2022/07/01 09:37:11;;;;;;;7.10;4.60;;;;;;;26.87;48.28;99671.65;105579;1273;138466;-64
2022/07/01 09:39:43;;;;;;;5.50;4.40;;;;;;;26.91;48.39;99673.93;109230;1273;22521;-64
2022/07/01 09:42:10;;;;;;;5.80;4.50;;;;;;;26.95;47.54;99675.73;109196;1273;22440;-65
2022/07/01 09:44:51;;;;;;;13.30;11.30;;;;;;;26.97;47.59;99672.84;109128;1273;137504;-65
2022/07/01 09:47:21;;;;;;;5.30;4.90;;;;;;;26.97;47.88;99667.88;109151;1273;22605;-65
2022/07/01 09:49:48;;;;;;;6.90;5.20;;;;;;;27.01;48.31;99671.39;108967;1273;137950;-66
2022/07/01 09:52:16;;;;;;;5.50;4.70;;;;;;;27.04;48.28;99669.38;109067;1274;22388;-66
2022/07/01 09:54:44;;;;;;;6.60;5.40;;;;;;;27.04;48.00;99663.46;109075;1273;139581;-65
2022/07/01 09:57:11;;;;;;;9.90;4.80;;;;;;;27.02;48.59;99668.86;109097;1273;22880;-66
2022/07/01 09:59:38;;;;;;;7.70;5.10;;;;;;;27.03;47.89;99665.83;109021;1274;23224;-66
2022/07/01 10:02:05;;;;;;;5.80;4.20;;;;;;;27.00;46.92;99669.52;109054;1273;137190;-66
2022/07/01 10:04:32;;;;;;;6.90;4.70;;;;;;;26.95;46.86;99663.05;109241;1273;22509;-66
2022/07/01 10:07:43;;;;;;;5.90;4.90;;;;;;;26.95;46.61;99663.42;108937;1276;138393;-66
2022/07/01 10:10:33;;;;;;;8.40;4.50;;;;;;;26.99;46.95;99660.80;108587;1280;22513;-67
2022/07/01 10:13:00;;;;;;;6.60;4.50;;;;;;;27.03;46.50;99658.58;108293;1280;139024;-66
2022/07/01 10:15:26;;;;;;;5.10;3.80;;;;;;;27.06;44.50;99656.73;108608;1280;23360;-65
2022/07/01 10:17:53;;;;;;;4.40;3.60;;;;;;;27.09;43.01;99659.38;108503;1280;22485;-66
2022/07/01 10:20:28;;;;;;;5.50;3.70;;;;;;;27.13;43.31;99653.12;108387;1280;137952;-66
2022/07/01 10:23:02;;;;;;;4.30;3.70;;;;;;;27.19;43.16;99657.17;108518;1280;22454;-66
2022/07/01 10:25:50;;;;;;;32.70;29.50;;;;;;;27.27;42.03;99660.55;108549;1280;138610;-65
2022/07/01 10:28:18;;;;;;;5.20;4.30;;;;;;;27.30;41.94;99659.17;108645;1279;22476;-66
2022/07/01 10:31:04;;;;;;;3.90;3.40;;;;;;;27.31;41.24;99657.65;108556;1280;136945;-66
2022/07/01 10:33:32;;;;;;;13.40;6.90;;;;;;;27.32;41.16;99659.86;108817;1280;22681;-67
2022/07/01 10:36:08;;;;;;;4.70;4.20;;;;;;;27.35;41.41;99659.85;108707;1280;23150;-68
2022/07/01 10:38:35;;;;;;;;;;;;;;;27.38;41.63;99654.25;108628;1280;139411;-66
2022/07/01 10:41:09;;;;;;;5.30;3.60;;;;;;;27.41;41.28;99651.90;108530;1280;22563;-66
2022/07/01 10:43:37;;;;;;;7.90;5.60;;;;;;;27.44;41.20;99645.55;108320;1280;138703;-66
2022/07/01 10:46:04;;;;;;;5.50;3.70;;;;;;;27.48;40.50;99642.91;108938;1273;22565;-66
2022/07/01 10:48:32;;;;;;;4.30;3.40;;;;;;;27.50;40.13;99641.68;109127;1273;23538;-65
2022/07/01 10:50:59;;;;;;;3.10;2.80;;;;;;;27.54;40.42;99640.57;109104;1273;137171;-65
2022/07/01 10:53:46;;;;;;;4.50;2.90;;;;;;;27.56;39.46;99638.80;109100;1274;22609;-65
2022/07/01 10:56:37;;;;;;;4.50;2.80;;;;;;;27.58;39.65;99636.60;108904;1274;139331;-66
2022/07/01 10:59:03;;;;;;;4.40;2.90;;;;;;;27.59;39.11;99635.42;109114;1273;22417;-66
2022/07/01 11:01:30;;;;;;;6.10;3.10;;;;;;;27.60;39.87;99636.81;108956;1274;138092;-65
2022/07/01 11:03:57;;;;;;;7.40;5.10;;;;;;;27.65;40.31;99635.63;109194;1273;22392;-65
2022/07/01 11:06:24;;;;;;;4.50;2.50;;;;;;;27.65;39.84;99628.52;108344;1273;1138495;-65
2022/07/01 11:09:58;;;;;;;4.00;3.20;;;;;;;27.67;39.20;99632.14;101745;1310;545896;-65
2022/07/01 11:12:25;;;;;;;3.50;2.90;;;;;;;27.62;40.22;99633.90;103998;1287;22810;-63
2022/07/01 11:14:52;;;;;;;5.60;3.30;;;;;;;27.63;41.45;99636.88;103558;1287;136809;-65
2022/07/01 11:17:19;;;;;;;6.50;3.70;;;;;;;27.67;42.08;99630.72;104055;1287;23028;-63
2022/07/01 11:19:54;;;;;;;4.00;3.00;;;;;;;27.68;41.36;99628.18;107960;1284;137283;-65
2022/07/01 11:22:21;;;;;;;4.10;2.90;;;;;;;27.68;39.24;99625.30;108164;1287;22536;-64
2022/07/01 11:24:52;;;;;;;3.00;2.50;;;;;;;27.69;38.81;99623.00;108085;1283;204316;-64
2022/07/01 11:27:18;;;;;;;2.80;2.30;;;;;;;27.71;37.72;99622.23;108352;1284;23340;-64
2022/07/01 11:29:45;;;;;;;4.10;2.40;;;;;;;27.73;38.28;99622.73;108395;1284;22406;-63
2022/07/01 11:32:12;;;;;;;4.00;2.90;;;;;;;27.74;38.08;99623.56;108144;1283;136883;-65